sensor_id;sensor_type;location;lat;lon;timestamp;P1;durP1;ratioP1;P2;durP2;ratioP2
75892;SDS011;64572;50.950;3.676;2023-04-03T00:00:56;35.03;;;21.38;;
75892;SDS011;64572;50.950;3.676;2023-04-03T00:03:22;35.85;;;21.75;;
75892;SDS011;64572;50.950;3.676;2023-04-03T00:05:48;42.00;;;24.83;;
75892;SDS011;64572;50.950;3.676;2023-04-03T00:08:14;36.38;;;22.60;;
75892;SDS011;64572;50.950;3.676;2023-04-03T00:10:40;29.17;;;18.60;;
75892;SDS011;64572;50.950;3.676;2023-04-03T00:13:06;36.30;;;21.60;;
75892;SDS011;64572;50.950;3.676;2023-04-03T00:15:36;37.45;;;22.63;;
75892;SDS011;64572;50.950;3.676;2023-04-03T00:18:08;38.53;;;23.20;;
75892;SDS011;64572;50.950;3.676;2023-04-03T00:20:35;35.97;;;21.05;;
75892;SDS011;64572;50.950;3.676;2023-04-03T00:23:01;37.95;;;22.30;;
75892;SDS011;64572;50.950;3.676;2023-04-03T00:25:27;36.72;;;20.90;;
75892;SDS011;64572;50.950;3.676;2023-04-03T00:27:53;30.77;;;19.45;;
75892;SDS011;64572;50.950;3.676;2023-04-03T00:30:20;32.20;;;20.40;;
75892;SDS011;64572;50.950;3.676;2023-04-03T00:32:49;34.50;;;20.00;;
75892;SDS011;64572;50.950;3.676;2023-04-03T00:35:16;34.97;;;20.73;;
75892;SDS011;64572;50.950;3.676;2023-04-03T00:37:43;35.25;;;21.15;;
75892;SDS011;64572;50.950;3.676;2023-04-03T00:40:09;36.20;;;21.73;;
75892;SDS011;64572;50.950;3.676;2023-04-03T00:42:37;40.03;;;23.85;;
75892;SDS011;64572;50.950;3.676;2023-04-03T00:47:29;34.03;;;20.15;;
75892;SDS011;64572;50.950;3.676;2023-04-03T00:49:56;40.25;;;22.08;;
75892;SDS011;64572;50.950;3.676;2023-04-03T00:52:26;24.77;;;14.95;;
75892;SDS011;64572;50.950;3.676;2023-04-03T00:54:56;37.22;;;21.38;;
75892;SDS011;64572;50.950;3.676;2023-04-03T00:57:27;37.15;;;21.02;;
75892;SDS011;64572;50.950;3.676;2023-04-03T00:59:55;33.53;;;19.23;;
75892;SDS011;64572;50.950;3.676;2023-04-03T01:02:32;36.60;;;21.60;;
75892;SDS011;64572;50.950;3.676;2023-04-03T01:04:58;34.75;;;20.15;;
75892;SDS011;64572;50.950;3.676;2023-04-03T01:07:25;37.40;;;21.88;;
75892;SDS011;64572;50.950;3.676;2023-04-03T01:09:56;38.05;;;21.08;;
75892;SDS011;64572;50.950;3.676;2023-04-03T01:12:25;35.30;;;20.42;;
75892;SDS011;64572;50.950;3.676;2023-04-03T01:15:08;38.88;;;21.33;;
75892;SDS011;64572;50.950;3.676;2023-04-03T01:25:22;36.67;;;19.98;;
75892;SDS011;64572;50.950;3.676;2023-04-03T01:27:48;35.42;;;21.08;;
75892;SDS011;64572;50.950;3.676;2023-04-03T01:30:16;35.85;;;19.70;;
75892;SDS011;64572;50.950;3.676;2023-04-03T01:32:43;35.40;;;19.80;;
75892;SDS011;64572;50.950;3.676;2023-04-03T01:35:09;29.88;;;17.73;;
75892;SDS011;64572;50.950;3.676;2023-04-03T01:37:35;33.85;;;19.45;;
75892;SDS011;64572;50.950;3.676;2023-04-03T01:40:01;38.17;;;20.92;;
75892;SDS011;64572;50.950;3.676;2023-04-03T01:42:28;36.53;;;21.60;;
75892;SDS011;64572;50.950;3.676;2023-04-03T01:44:54;29.27;;;17.40;;
75892;SDS011;64572;50.950;3.676;2023-04-03T01:47:20;33.38;;;18.77;;
75892;SDS011;64572;50.950;3.676;2023-04-03T01:49:46;32.58;;;18.48;;
75892;SDS011;64572;50.950;3.676;2023-04-03T01:52:11;32.03;;;17.30;;
75892;SDS011;64572;50.950;3.676;2023-04-03T01:54:37;28.33;;;16.17;;
75892;SDS011;64572;50.950;3.676;2023-04-03T01:57:03;35.92;;;19.98;;
75892;SDS011;64572;50.950;3.676;2023-04-03T01:59:29;30.23;;;18.17;;
75892;SDS011;64572;50.950;3.676;2023-04-03T02:01:54;34.40;;;18.50;;
75892;SDS011;64572;50.950;3.676;2023-04-03T02:04:20;33.15;;;19.45;;
75892;SDS011;64572;50.950;3.676;2023-04-03T02:06:46;31.85;;;17.58;;
75892;SDS011;64572;50.950;3.676;2023-04-03T02:09:11;29.02;;;17.17;;
75892;SDS011;64572;50.950;3.676;2023-04-03T02:11:37;30.60;;;17.58;;
75892;SDS011;64572;50.950;3.676;2023-04-03T02:14:03;38.53;;;20.00;;
75892;SDS011;64572;50.950;3.676;2023-04-03T02:16:29;36.20;;;20.35;;
75892;SDS011;64572;50.950;3.676;2023-04-03T02:18:55;34.42;;;20.15;;
75892;SDS011;64572;50.950;3.676;2023-04-03T02:21:21;38.03;;;20.05;;
75892;SDS011;64572;50.950;3.676;2023-04-03T02:23:47;36.58;;;17.40;;
75892;SDS011;64572;50.950;3.676;2023-04-03T02:26:13;28.88;;;17.30;;
75892;SDS011;64572;50.950;3.676;2023-04-03T02:28:40;28.27;;;16.87;;
75892;SDS011;64572;50.950;3.676;2023-04-03T02:31:08;26.58;;;15.10;;
75892;SDS011;64572;50.950;3.676;2023-04-03T02:33:35;27.73;;;16.58;;
75892;SDS011;64572;50.950;3.676;2023-04-03T02:36:02;26.60;;;14.52;;
75892;SDS011;64572;50.950;3.676;2023-04-03T02:38:29;25.45;;;14.35;;
75892;SDS011;64572;50.950;3.676;2023-04-03T02:41:02;26.20;;;15.05;;
75892;SDS011;64572;50.950;3.676;2023-04-03T02:43:29;25.50;;;13.02;;
75892;SDS011;64572;50.950;3.676;2023-04-03T02:45:56;27.65;;;14.40;;
75892;SDS011;64572;50.950;3.676;2023-04-03T02:48:21;23.75;;;13.55;;
75892;SDS011;64572;50.950;3.676;2023-04-03T02:50:48;27.02;;;14.05;;
75892;SDS011;64572;50.950;3.676;2023-04-03T02:53:15;28.10;;;13.30;;
75892;SDS011;64572;50.950;3.676;2023-04-03T02:55:41;25.75;;;14.63;;
75892;SDS011;64572;50.950;3.676;2023-04-03T02:58:07;29.10;;;15.55;;
75892;SDS011;64572;50.950;3.676;2023-04-03T03:00:33;29.40;;;13.77;;
75892;SDS011;64572;50.950;3.676;2023-04-03T03:02:59;26.17;;;14.90;;
75892;SDS011;64572;50.950;3.676;2023-04-03T03:05:25;24.98;;;13.88;;
75892;SDS011;64572;50.950;3.676;2023-04-03T03:07:52;25.83;;;13.02;;
75892;SDS011;64572;50.950;3.676;2023-04-03T03:10:18;28.42;;;15.07;;
75892;SDS011;64572;50.950;3.676;2023-04-03T03:12:44;27.33;;;14.55;;
75892;SDS011;64572;50.950;3.676;2023-04-03T03:15:10;30.05;;;15.07;;
75892;SDS011;64572;50.950;3.676;2023-04-03T03:17:36;26.88;;;14.88;;
75892;SDS011;64572;50.950;3.676;2023-04-03T03:20:03;27.20;;;15.27;;
75892;SDS011;64572;50.950;3.676;2023-04-03T03:22:30;31.25;;;14.60;;
75892;SDS011;64572;50.950;3.676;2023-04-03T03:24:55;27.23;;;14.52;;
75892;SDS011;64572;50.950;3.676;2023-04-03T03:27:21;30.25;;;14.18;;
75892;SDS011;64572;50.950;3.676;2023-04-03T03:29:47;25.75;;;13.60;;
75892;SDS011;64572;50.950;3.676;2023-04-03T03:32:12;30.30;;;15.52;;
75892;SDS011;64572;50.950;3.676;2023-04-03T03:34:38;33.47;;;17.38;;
75892;SDS011;64572;50.950;3.676;2023-04-03T03:37:04;26.83;;;15.00;;
75892;SDS011;64572;50.950;3.676;2023-04-03T03:39:30;31.13;;;15.50;;
75892;SDS011;64572;50.950;3.676;2023-04-03T03:41:55;27.40;;;15.13;;
75892;SDS011;64572;50.950;3.676;2023-04-03T03:44:21;31.38;;;15.90;;
75892;SDS011;64572;50.950;3.676;2023-04-03T03:46:47;34.10;;;16.52;;
75892;SDS011;64572;50.950;3.676;2023-04-03T03:49:12;30.60;;;17.00;;
75892;SDS011;64572;50.950;3.676;2023-04-03T03:51:38;28.00;;;16.35;;
75892;SDS011;64572;50.950;3.676;2023-04-03T03:54:05;32.42;;;17.05;;
75892;SDS011;64572;50.950;3.676;2023-04-03T03:56:31;28.27;;;15.20;;
75892;SDS011;64572;50.950;3.676;2023-04-03T03:58:57;29.63;;;15.45;;
75892;SDS011;64572;50.950;3.676;2023-04-03T04:01:23;32.58;;;15.75;;
75892;SDS011;64572;50.950;3.676;2023-04-03T04:03:49;30.33;;;15.52;;
75892;SDS011;64572;50.950;3.676;2023-04-03T04:06:15;26.92;;;14.23;;
75892;SDS011;64572;50.950;3.676;2023-04-03T04:08:41;28.23;;;14.68;;
75892;SDS011;64572;50.950;3.676;2023-04-03T04:11:07;29.25;;;15.30;;
75892;SDS011;64572;50.950;3.676;2023-04-03T04:13:33;27.63;;;16.10;;
75892;SDS011;64572;50.950;3.676;2023-04-03T04:15:59;24.58;;;13.85;;
75892;SDS011;64572;50.950;3.676;2023-04-03T04:18:25;30.50;;;17.00;;
75892;SDS011;64572;50.950;3.676;2023-04-03T04:20:50;24.38;;;13.52;;
75892;SDS011;64572;50.950;3.676;2023-04-03T04:23:17;25.13;;;14.82;;
75892;SDS011;64572;50.950;3.676;2023-04-03T04:25:46;27.02;;;15.45;;
75892;SDS011;64572;50.950;3.676;2023-04-03T04:28:13;22.80;;;12.85;;
75892;SDS011;64572;50.950;3.676;2023-04-03T04:30:39;28.63;;;13.02;;
75892;SDS011;64572;50.950;3.676;2023-04-03T04:33:05;29.73;;;15.27;;
75892;SDS011;64572;50.950;3.676;2023-04-03T04:35:31;26.58;;;14.57;;
75892;SDS011;64572;50.950;3.676;2023-04-03T04:37:58;28.30;;;13.77;;
75892;SDS011;64572;50.950;3.676;2023-04-03T04:40:23;27.88;;;15.70;;
75892;SDS011;64572;50.950;3.676;2023-04-03T04:42:49;28.50;;;15.88;;
75892;SDS011;64572;50.950;3.676;2023-04-03T04:45:15;33.65;;;17.48;;
75892;SDS011;64572;50.950;3.676;2023-04-03T04:47:41;29.50;;;17.00;;
75892;SDS011;64572;50.950;3.676;2023-04-03T04:50:07;32.28;;;18.02;;
75892;SDS011;64572;50.950;3.676;2023-04-03T04:52:33;31.58;;;17.48;;
75892;SDS011;64572;50.950;3.676;2023-04-03T04:54:59;30.10;;;16.83;;
75892;SDS011;64572;50.950;3.676;2023-04-03T04:57:25;33.25;;;17.52;;
75892;SDS011;64572;50.950;3.676;2023-04-03T04:59:51;30.08;;;16.35;;
75892;SDS011;64572;50.950;3.676;2023-04-03T05:02:16;28.15;;;16.35;;
75892;SDS011;64572;50.950;3.676;2023-04-03T05:04:42;28.02;;;16.70;;
75892;SDS011;64572;50.950;3.676;2023-04-03T05:07:08;31.75;;;17.08;;
75892;SDS011;64572;50.950;3.676;2023-04-03T05:09:34;32.40;;;15.45;;
75892;SDS011;64572;50.950;3.676;2023-04-03T05:11:59;29.00;;;15.20;;
75892;SDS011;64572;50.950;3.676;2023-04-03T05:14:25;30.67;;;16.08;;
75892;SDS011;64572;50.950;3.676;2023-04-03T05:16:51;30.55;;;15.93;;
75892;SDS011;64572;50.950;3.676;2023-04-03T05:19:19;33.13;;;17.60;;
75892;SDS011;64572;50.950;3.676;2023-04-03T05:21:47;32.17;;;18.23;;
75892;SDS011;64572;50.950;3.676;2023-04-03T05:24:13;31.75;;;17.10;;
75892;SDS011;64572;50.950;3.676;2023-04-03T05:26:41;35.88;;;17.92;;
75892;SDS011;64572;50.950;3.676;2023-04-03T05:29:07;39.17;;;18.00;;
75892;SDS011;64572;50.950;3.676;2023-04-03T05:31:33;32.50;;;17.90;;
75892;SDS011;64572;50.950;3.676;2023-04-03T05:33:59;34.17;;;17.08;;
75892;SDS011;64572;50.950;3.676;2023-04-03T05:36:25;37.70;;;18.02;;
75892;SDS011;64572;50.950;3.676;2023-04-03T05:38:51;33.22;;;19.17;;
75892;SDS011;64572;50.950;3.676;2023-04-03T05:41:17;28.95;;;17.27;;
75892;SDS011;64572;50.950;3.676;2023-04-03T05:43:43;31.77;;;17.77;;
75892;SDS011;64572;50.950;3.676;2023-04-03T05:46:12;32.90;;;18.33;;
75892;SDS011;64572;50.950;3.676;2023-04-03T05:48:40;29.17;;;15.77;;
75892;SDS011;64572;50.950;3.676;2023-04-03T05:51:07;32.15;;;18.20;;
75892;SDS011;64572;50.950;3.676;2023-04-03T05:53:41;34.28;;;19.17;;
75892;SDS011;64572;50.950;3.676;2023-04-03T05:56:08;35.63;;;17.13;;
75892;SDS011;64572;50.950;3.676;2023-04-03T05:58:34;34.78;;;18.88;;
75892;SDS011;64572;50.950;3.676;2023-04-03T06:01:00;31.55;;;18.85;;
75892;SDS011;64572;50.950;3.676;2023-04-03T06:03:26;31.48;;;16.02;;
75892;SDS011;64572;50.950;3.676;2023-04-03T06:05:52;32.72;;;17.83;;
75892;SDS011;64572;50.950;3.676;2023-04-03T06:08:18;30.67;;;16.70;;
75892;SDS011;64572;50.950;3.676;2023-04-03T06:10:43;29.42;;;16.48;;
75892;SDS011;64572;50.950;3.676;2023-04-03T06:13:09;29.42;;;16.88;;
75892;SDS011;64572;50.950;3.676;2023-04-03T06:15:35;34.45;;;18.75;;
75892;SDS011;64572;50.950;3.676;2023-04-03T06:18:01;28.90;;;17.60;;
75892;SDS011;64572;50.950;3.676;2023-04-03T06:20:27;31.08;;;17.38;;
75892;SDS011;64572;50.950;3.676;2023-04-03T06:22:53;32.25;;;19.95;;
75892;SDS011;64572;50.950;3.676;2023-04-03T06:25:19;35.25;;;18.65;;
75892;SDS011;64572;50.950;3.676;2023-04-03T06:27:45;38.33;;;19.52;;
75892;SDS011;64572;50.950;3.676;2023-04-03T06:30:11;30.35;;;17.48;;
75892;SDS011;64572;50.950;3.676;2023-04-03T06:32:37;28.83;;;16.33;;
75892;SDS011;64572;50.950;3.676;2023-04-03T06:35:03;27.65;;;15.93;;
75892;SDS011;64572;50.950;3.676;2023-04-03T06:37:30;26.30;;;16.08;;
75892;SDS011;64572;50.950;3.676;2023-04-03T06:39:57;29.75;;;17.42;;
75892;SDS011;64572;50.950;3.676;2023-04-03T06:42:23;29.63;;;17.80;;
75892;SDS011;64572;50.950;3.676;2023-04-03T06:44:49;34.10;;;17.10;;
75892;SDS011;64572;50.950;3.676;2023-04-03T06:47:15;32.22;;;17.92;;
75892;SDS011;64572;50.950;3.676;2023-04-03T06:49:42;30.38;;;16.35;;
75892;SDS011;64572;50.950;3.676;2023-04-03T06:52:08;29.17;;;16.40;;
75892;SDS011;64572;50.950;3.676;2023-04-03T06:54:34;31.65;;;17.38;;
75892;SDS011;64572;50.950;3.676;2023-04-03T06:57:00;26.40;;;16.42;;
75892;SDS011;64572;50.950;3.676;2023-04-03T06:59:27;25.13;;;15.55;;
75892;SDS011;64572;50.950;3.676;2023-04-03T07:01:52;27.30;;;13.60;;
75892;SDS011;64572;50.950;3.676;2023-04-03T07:04:18;25.77;;;15.75;;
75892;SDS011;64572;50.950;3.676;2023-04-03T07:06:45;26.70;;;16.17;;
75892;SDS011;64572;50.950;3.676;2023-04-03T07:09:14;29.13;;;16.80;;
75892;SDS011;64572;50.950;3.676;2023-04-03T07:11:40;29.45;;;19.52;;
75892;SDS011;64572;50.950;3.676;2023-04-03T07:14:06;23.85;;;13.45;;
75892;SDS011;64572;50.950;3.676;2023-04-03T07:16:33;26.38;;;14.55;;
75892;SDS011;64572;50.950;3.676;2023-04-03T07:19:00;25.57;;;17.00;;
75892;SDS011;64572;50.950;3.676;2023-04-03T07:21:26;48.97;;;39.50;;
75892;SDS011;64572;50.950;3.676;2023-04-03T07:23:53;32.47;;;23.92;;
75892;SDS011;64572;50.950;3.676;2023-04-03T07:26:19;33.30;;;20.73;;
75892;SDS011;64572;50.950;3.676;2023-04-03T07:28:46;22.45;;;12.68;;
75892;SDS011;64572;50.950;3.676;2023-04-03T07:31:13;21.75;;;11.00;;
75892;SDS011;64572;50.950;3.676;2023-04-03T07:33:40;18.35;;;11.20;;
75892;SDS011;64572;50.950;3.676;2023-04-03T07:36:07;18.60;;;10.68;;
75892;SDS011;64572;50.950;3.676;2023-04-03T07:38:34;19.45;;;11.30;;
75892;SDS011;64572;50.950;3.676;2023-04-03T07:41:01;20.58;;;11.40;;
75892;SDS011;64572;50.950;3.676;2023-04-03T07:43:27;19.77;;;10.25;;
75892;SDS011;64572;50.950;3.676;2023-04-03T07:45:52;17.98;;;10.07;;
75892;SDS011;64572;50.950;3.676;2023-04-03T07:48:23;16.25;;;9.45;;
75892;SDS011;64572;50.950;3.676;2023-04-03T07:50:50;18.23;;;9.95;;
75892;SDS011;64572;50.950;3.676;2023-04-03T07:53:17;16.60;;;9.77;;
75892;SDS011;64572;50.950;3.676;2023-04-03T07:55:46;18.10;;;6.95;;
75892;SDS011;64572;50.950;3.676;2023-04-03T07:58:13;19.23;;;9.05;;
75892;SDS011;64572;50.950;3.676;2023-04-03T08:00:41;19.98;;;9.77;;
75892;SDS011;64572;50.950;3.676;2023-04-03T08:03:09;20.23;;;9.40;;
75892;SDS011;64572;50.950;3.676;2023-04-03T08:05:39;16.63;;;9.48;;
75892;SDS011;64572;50.950;3.676;2023-04-03T08:08:06;13.85;;;7.95;;
75892;SDS011;64572;50.950;3.676;2023-04-03T08:10:34;16.70;;;8.23;;
75892;SDS011;64572;50.950;3.676;2023-04-03T08:13:00;20.40;;;9.77;;
75892;SDS011;64572;50.950;3.676;2023-04-03T08:15:26;21.38;;;9.50;;
75892;SDS011;64572;50.950;3.676;2023-04-03T08:17:52;16.50;;;9.88;;
75892;SDS011;64572;50.950;3.676;2023-04-03T08:20:18;20.20;;;10.57;;
75892;SDS011;64572;50.950;3.676;2023-04-03T08:22:44;19.13;;;10.00;;
75892;SDS011;64572;50.950;3.676;2023-04-03T08:25:10;19.38;;;10.20;;
75892;SDS011;64572;50.950;3.676;2023-04-03T08:27:35;20.17;;;10.02;;
75892;SDS011;64572;50.950;3.676;2023-04-03T08:30:04;21.83;;;11.80;;
75892;SDS011;64572;50.950;3.676;2023-04-03T08:32:32;17.90;;;9.02;;
75892;SDS011;64572;50.950;3.676;2023-04-03T08:34:59;16.42;;;7.68;;
75892;SDS011;64572;50.950;3.676;2023-04-03T08:37:25;19.83;;;10.10;;
75892;SDS011;64572;50.950;3.676;2023-04-03T08:39:51;19.52;;;10.70;;
75892;SDS011;64572;50.950;3.676;2023-04-03T08:45:16;20.40;;;9.50;;
75892;SDS011;64572;50.950;3.676;2023-04-03T08:48:05;17.10;;;9.23;;
75892;SDS011;64572;50.950;3.676;2023-04-03T08:50:39;20.23;;;10.13;;
75892;SDS011;64572;50.950;3.676;2023-04-03T08:53:15;13.60;;;6.32;;
75892;SDS011;64572;50.950;3.676;2023-04-03T08:55:48;15.18;;;5.70;;
75892;SDS011;64572;50.950;3.676;2023-04-03T08:58:16;15.27;;;6.20;;
75892;SDS011;64572;50.950;3.676;2023-04-03T09:00:46;10.00;;;4.50;;
75892;SDS011;64572;50.950;3.676;2023-04-03T09:03:13;14.32;;;5.55;;
75892;SDS011;64572;50.950;3.676;2023-04-03T09:05:48;12.20;;;3.78;;
75892;SDS011;64572;50.950;3.676;2023-04-03T09:11:17;12.57;;;4.43;;
75892;SDS011;64572;50.950;3.676;2023-04-03T09:14:15;13.02;;;4.50;;
75892;SDS011;64572;50.950;3.676;2023-04-03T09:16:56;10.52;;;3.72;;
75892;SDS011;64572;50.950;3.676;2023-04-03T09:21:57;11.30;;;3.50;;
75892;SDS011;64572;50.950;3.676;2023-04-03T09:24:45;8.68;;;2.72;;
75892;SDS011;64572;50.950;3.676;2023-04-03T09:27:14;8.07;;;2.50;;
75892;SDS011;64572;50.950;3.676;2023-04-03T09:29:40;8.30;;;2.53;;
75892;SDS011;64572;50.950;3.676;2023-04-03T09:32:21;6.65;;;2.30;;
75892;SDS011;64572;50.950;3.676;2023-04-03T09:34:56;6.55;;;2.10;;
75892;SDS011;64572;50.950;3.676;2023-04-03T09:37:37;6.95;;;2.30;;
75892;SDS011;64572;50.950;3.676;2023-04-03T09:40:50;11.90;;;2.83;;
75892;SDS011;64572;50.950;3.676;2023-04-03T09:43:20;10.43;;;2.63;;
75892;SDS011;64572;50.950;3.676;2023-04-03T09:45:50;10.05;;;3.00;;
75892;SDS011;64572;50.950;3.676;2023-04-03T09:48:20;11.15;;;2.35;;
75892;SDS011;64572;50.950;3.676;2023-04-03T09:55:55;10.27;;;2.90;;
75892;SDS011;64572;50.950;3.676;2023-04-03T09:58:32;10.35;;;2.60;;
75892;SDS011;64572;50.950;3.676;2023-04-03T10:01:02;7.70;;;2.40;;
75892;SDS011;64572;50.950;3.676;2023-04-03T10:03:32;9.15;;;2.40;;
75892;SDS011;64572;50.950;3.676;2023-04-03T10:06:04;13.90;;;3.53;;
75892;SDS011;64572;50.950;3.676;2023-04-03T10:08:58;11.77;;;3.10;;
75892;SDS011;64572;50.950;3.676;2023-04-03T10:11:26;12.38;;;2.72;;
75892;SDS011;64572;50.950;3.676;2023-04-03T10:13:55;9.20;;;2.60;;
75892;SDS011;64572;50.950;3.676;2023-04-03T10:16:27;9.63;;;2.53;;
75892;SDS011;64572;50.950;3.676;2023-04-03T10:19:06;9.90;;;2.85;;
75892;SDS011;64572;50.950;3.676;2023-04-03T10:22:32;11.60;;;3.20;;
75892;SDS011;64572;50.950;3.676;2023-04-03T10:24:47;10.30;;;3.20;;
75892;SDS011;64572;50.950;3.676;2023-04-03T10:27:17;13.32;;;3.55;;
75892;SDS011;64572;50.950;3.676;2023-04-03T10:41:17;9.45;;;2.75;;
75892;SDS011;64572;50.950;3.676;2023-04-03T10:44:15;7.38;;;2.70;;
75892;SDS011;64572;50.950;3.676;2023-04-03T10:57:47;12.40;;;2.92;;
75892;SDS011;64572;50.950;3.676;2023-04-03T11:00:18;8.17;;;2.63;;
75892;SDS011;64572;50.950;3.676;2023-04-03T11:02:54;11.63;;;2.50;;
75892;SDS011;64572;50.950;3.676;2023-04-03T11:07:51;13.02;;;2.88;;
75892;SDS011;64572;50.950;3.676;2023-04-03T11:10:23;8.20;;;2.58;;
75892;SDS011;64572;50.950;3.676;2023-04-03T11:12:58;11.77;;;2.63;;
75892;SDS011;64572;50.950;3.676;2023-04-03T11:15:31;7.18;;;2.10;;
75892;SDS011;64572;50.950;3.676;2023-04-03T11:18:08;8.35;;;2.20;;
75892;SDS011;64572;50.950;3.676;2023-04-03T11:20:37;7.97;;;2.20;;
75892;SDS011;64572;50.950;3.676;2023-04-03T11:23:15;6.93;;;2.10;;
75892;SDS011;64572;50.950;3.676;2023-04-03T11:25:47;7.60;;;1.95;;
75892;SDS011;64572;50.950;3.676;2023-04-03T11:28:17;8.95;;;2.10;;
75892;SDS011;64572;50.950;3.676;2023-04-03T11:30:52;6.43;;;1.90;;
75892;SDS011;64572;50.950;3.676;2023-04-03T11:36:10;8.48;;;2.17;;
75892;SDS011;64572;50.950;3.676;2023-04-03T11:41:11;6.20;;;1.90;;
75892;SDS011;64572;50.950;3.676;2023-04-03T11:43:40;7.60;;;1.92;;
75892;SDS011;64572;50.950;3.676;2023-04-03T11:46:20;5.57;;;1.45;;
75892;SDS011;64572;50.950;3.676;2023-04-03T11:48:47;7.57;;;2.05;;
75892;SDS011;64572;50.950;3.676;2023-04-03T11:53:45;7.65;;;1.83;;
75892;SDS011;64572;50.950;3.676;2023-04-03T12:01:44;5.28;;;1.58;;
75892;SDS011;64572;50.950;3.676;2023-04-03T12:04:11;5.97;;;1.50;;
75892;SDS011;64572;50.950;3.676;2023-04-03T12:11:59;6.75;;;1.90;;
75892;SDS011;64572;50.950;3.676;2023-04-03T12:14:45;5.35;;;1.40;;
75892;SDS011;64572;50.950;3.676;2023-04-03T12:17:18;7.05;;;1.40;;
75892;SDS011;64572;50.950;3.676;2023-04-03T12:19:51;5.10;;;1.58;;
75892;SDS011;64572;50.950;3.676;2023-04-03T12:22:19;7.00;;;1.73;;
75892;SDS011;64572;50.950;3.676;2023-04-03T12:27:26;6.65;;;1.58;;
75892;SDS011;64572;50.950;3.676;2023-04-03T12:35:14;8.60;;;1.88;;
75892;SDS011;64572;50.950;3.676;2023-04-03T12:48:37;5.63;;;1.52;;
75892;SDS011;64572;50.950;3.676;2023-04-03T12:51:12;7.15;;;1.70;;
75892;SDS011;64572;50.950;3.676;2023-04-03T12:53:57;8.48;;;2.10;;
75892;SDS011;64572;50.950;3.676;2023-04-03T12:56:42;5.05;;;1.77;;
75892;SDS011;64572;50.950;3.676;2023-04-03T12:59:15;7.00;;;1.70;;
75892;SDS011;64572;50.950;3.676;2023-04-03T13:04:21;7.25;;;1.67;;
75892;SDS011;64572;50.950;3.676;2023-04-03T13:06:47;6.50;;;1.65;;
75892;SDS011;64572;50.950;3.676;2023-04-03T13:09:23;5.65;;;1.70;;
75892;SDS011;64572;50.950;3.676;2023-04-03T13:14:23;9.43;;;2.00;;
75892;SDS011;64572;50.950;3.676;2023-04-03T13:16:56;7.95;;;1.90;;
75892;SDS011;64572;50.950;3.676;2023-04-03T13:19:24;6.80;;;1.77;;
75892;SDS011;64572;50.950;3.676;2023-04-03T13:24:22;11.63;;;2.70;;
75892;SDS011;64572;50.950;3.676;2023-04-03T13:26:48;14.77;;;3.47;;
75892;SDS011;64572;50.950;3.676;2023-04-03T13:29:25;8.25;;;2.00;;
75892;SDS011;64572;50.950;3.676;2023-04-03T13:31:56;5.55;;;1.98;;
75892;SDS011;64572;50.950;3.676;2023-04-03T13:34:26;10.07;;;2.00;;
75892;SDS011;64572;50.950;3.676;2023-04-03T13:37:03;8.50;;;1.92;;
75892;SDS011;64572;50.950;3.676;2023-04-03T13:39:30;5.18;;;1.50;;
75892;SDS011;64572;50.950;3.676;2023-04-03T13:42:02;8.15;;;2.05;;
75892;SDS011;64572;50.950;3.676;2023-04-03T13:44:41;6.50;;;1.67;;
75892;SDS011;64572;50.950;3.676;2023-04-03T13:49:43;6.80;;;1.50;;
75892;SDS011;64572;50.950;3.676;2023-04-03T13:52:33;6.80;;;1.85;;
75892;SDS011;64572;50.950;3.676;2023-04-03T13:55:51;9.32;;;1.80;;
75892;SDS011;64572;50.950;3.676;2023-04-03T13:58:03;3.60;;;1.05;;
75892;SDS011;64572;50.950;3.676;2023-04-03T14:03:46;10.52;;;2.33;;
75892;SDS011;64572;50.950;3.676;2023-04-03T14:06:17;7.78;;;1.65;;
75892;SDS011;64572;50.950;3.676;2023-04-03T14:08:43;5.88;;;1.67;;
75892;SDS011;64572;50.950;3.676;2023-04-03T14:11:14;3.45;;;1.40;;
75892;SDS011;64572;50.950;3.676;2023-04-03T14:13:49;6.75;;;1.45;;
75892;SDS011;64572;50.950;3.676;2023-04-03T14:16:16;6.72;;;1.60;;
75892;SDS011;64572;50.950;3.676;2023-04-03T14:18:45;5.00;;;1.38;;
75892;SDS011;64572;50.950;3.676;2023-04-03T14:21:13;4.22;;;1.40;;
75892;SDS011;64572;50.950;3.676;2023-04-03T14:23:41;6.82;;;1.60;;
75892;SDS011;64572;50.950;3.676;2023-04-03T14:28:58;4.32;;;1.27;;
75892;SDS011;64572;50.950;3.676;2023-04-03T14:31:24;5.00;;;1.73;;
75892;SDS011;64572;50.950;3.676;2023-04-03T14:33:50;5.95;;;1.50;;
75892;SDS011;64572;50.950;3.676;2023-04-03T14:36:25;5.47;;;1.33;;
75892;SDS011;64572;50.950;3.676;2023-04-03T14:38:53;7.80;;;1.52;;
75892;SDS011;64572;50.950;3.676;2023-04-03T14:41:19;5.45;;;1.30;;
75892;SDS011;64572;50.950;3.676;2023-04-03T14:43:47;6.03;;;1.40;;
75892;SDS011;64572;50.950;3.676;2023-04-03T14:46:14;8.20;;;1.52;;
75892;SDS011;64572;50.950;3.676;2023-04-03T14:48:51;3.95;;;1.25;;
75892;SDS011;64572;50.950;3.676;2023-04-03T14:51:17;5.07;;;1.50;;
75892;SDS011;64572;50.950;3.676;2023-04-03T14:53:43;6.80;;;1.60;;
75892;SDS011;64572;50.950;3.676;2023-04-03T14:56:14;5.57;;;1.90;;
75892;SDS011;64572;50.950;3.676;2023-04-03T14:58:47;5.00;;;1.58;;
75892;SDS011;64572;50.950;3.676;2023-04-03T15:01:15;6.05;;;1.70;;
75892;SDS011;64572;50.950;3.676;2023-04-03T15:03:42;6.45;;;1.63;;
75892;SDS011;64572;50.950;3.676;2023-04-03T15:06:09;5.93;;;1.52;;
75892;SDS011;64572;50.950;3.676;2023-04-03T15:08:36;4.95;;;1.30;;
75892;SDS011;64572;50.950;3.676;2023-04-03T15:11:02;8.43;;;1.90;;
75892;SDS011;64572;50.950;3.676;2023-04-03T15:13:28;4.32;;;1.50;;
75892;SDS011;64572;50.950;3.676;2023-04-03T15:15:54;4.55;;;1.50;;
75892;SDS011;64572;50.950;3.676;2023-04-03T15:18:24;6.95;;;1.80;;
75892;SDS011;64572;50.950;3.676;2023-04-03T15:20:52;5.45;;;1.55;;
75892;SDS011;64572;50.950;3.676;2023-04-03T15:23:19;6.15;;;1.65;;
75892;SDS011;64572;50.950;3.676;2023-04-03T15:25:50;6.43;;;1.70;;
75892;SDS011;64572;50.950;3.676;2023-04-03T15:30:54;6.90;;;2.00;;
75892;SDS011;64572;50.950;3.676;2023-04-03T15:33:21;7.75;;;1.60;;
75892;SDS011;64572;50.950;3.676;2023-04-03T15:35:47;5.05;;;1.50;;
75892;SDS011;64572;50.950;3.676;2023-04-03T15:38:13;5.10;;;1.33;;
75892;SDS011;64572;50.950;3.676;2023-04-03T15:40:39;6.55;;;1.55;;
75892;SDS011;64572;50.950;3.676;2023-04-03T15:43:06;6.13;;;2.00;;
75892;SDS011;64572;50.950;3.676;2023-04-03T15:45:32;5.40;;;1.70;;
75892;SDS011;64572;50.950;3.676;2023-04-03T15:47:59;3.67;;;1.30;;
75892;SDS011;64572;50.950;3.676;2023-04-03T15:50:26;7.72;;;1.60;;
75892;SDS011;64572;50.950;3.676;2023-04-03T15:52:52;3.97;;;1.50;;
75892;SDS011;64572;50.950;3.676;2023-04-03T15:55:23;8.35;;;1.67;;
75892;SDS011;64572;50.950;3.676;2023-04-03T15:57:50;5.72;;;1.63;;
75892;SDS011;64572;50.950;3.676;2023-04-03T16:00:17;9.05;;;2.00;;
75892;SDS011;64572;50.950;3.676;2023-04-03T16:02:44;5.90;;;1.80;;
75892;SDS011;64572;50.950;3.676;2023-04-03T16:05:10;5.85;;;1.67;;
75892;SDS011;64572;50.950;3.676;2023-04-03T16:07:38;6.45;;;1.83;;
75892;SDS011;64572;50.950;3.676;2023-04-03T16:10:05;7.32;;;2.00;;
75892;SDS011;64572;50.950;3.676;2023-04-03T16:12:31;4.35;;;1.50;;
75892;SDS011;64572;50.950;3.676;2023-04-03T16:14:57;5.05;;;1.40;;
75892;SDS011;64572;50.950;3.676;2023-04-03T16:17:23;6.38;;;1.50;;
75892;SDS011;64572;50.950;3.676;2023-04-03T16:19:48;7.07;;;1.60;;
75892;SDS011;64572;50.950;3.676;2023-04-03T16:22:14;7.43;;;1.52;;
75892;SDS011;64572;50.950;3.676;2023-04-03T16:24:40;7.60;;;1.83;;